createdAt,value
2023-08-21T00:00:25.382Z,20.80
2023-08-21T00:02:49.068Z,20.70
2023-08-21T00:05:12.789Z,20.70
2023-08-21T00:07:36.463Z,20.60
2023-08-21T00:10:00.208Z,20.60
2023-08-21T00:12:25.378Z,20.60
2023-08-21T00:14:48.974Z,20.70
2023-08-21T00:17:12.736Z,20.60
2023-08-21T00:19:36.825Z,20.60
2023-08-21T00:22:00.514Z,20.50
2023-08-21T00:24:24.182Z,20.60
2023-08-21T00:26:47.965Z,20.50
2023-08-21T00:29:13.197Z,20.50
2023-08-21T00:31:37.337Z,20.50
2023-08-21T00:34:01.225Z,20.40
2023-08-21T00:36:25.029Z,20.40
2023-08-21T00:38:48.678Z,20.40
2023-08-21T00:41:12.363Z,20.40
2023-08-21T00:43:35.960Z,20.40
2023-08-21T00:46:01.040Z,20.40
2023-08-21T00:48:24.726Z,20.30
2023-08-21T00:50:48.551Z,20.30
2023-08-21T00:53:12.758Z,20.30
2023-08-21T00:55:36.895Z,20.30
2023-08-21T00:58:01.373Z,20.30
2023-08-21T01:00:26.612Z,20.20
2023-08-21T01:02:51.618Z,20.20
2023-08-21T01:05:15.468Z,20.20
2023-08-21T01:07:49.265Z,20.20
2023-08-21T01:10:21.665Z,20.20
2023-08-21T01:12:54.020Z,20.20
2023-08-21T01:15:17.785Z,20.20
2023-08-21T01:17:42.823Z,20.20
2023-08-21T01:20:10.939Z,20.20
2023-08-21T01:22:39.535Z,20.20
2023-08-21T01:25:06.585Z,20.20
2023-08-21T01:27:30.297Z,20.20
2023-08-21T01:29:54.424Z,20.20
2023-08-21T01:32:27.834Z,20.20
2023-08-21T01:34:54.121Z,20.20
2023-08-21T01:37:19.688Z,20.20
2023-08-21T01:39:46.494Z,20.10
2023-08-21T01:42:12.298Z,20.10
2023-08-21T01:44:36.002Z,20.10
2023-08-21T01:47:00.501Z,20.10
2023-08-21T01:49:24.296Z,20.20
2023-08-21T01:51:48.074Z,20.10
2023-08-21T01:54:11.782Z,20.20
2023-08-21T01:56:36.224Z,20.20
2023-08-21T01:59:01.378Z,20.20
2023-08-21T02:01:25.285Z,20.20
2023-08-21T02:03:49.051Z,20.30
2023-08-21T02:06:12.808Z,20.30
2023-08-21T02:08:36.987Z,20.30
2023-08-21T02:11:00.928Z,20.30
2023-08-21T02:13:24.659Z,20.40
2023-08-21T02:15:49.748Z,20.40
2023-08-21T02:18:13.458Z,20.40
2023-08-21T02:20:37.186Z,20.40
2023-08-21T02:23:00.862Z,20.50
2023-08-21T02:25:24.527Z,20.50
2023-08-21T02:27:48.182Z,20.50
2023-08-21T02:30:13.160Z,20.50
2023-08-21T02:32:39.758Z,20.50
2023-08-21T02:35:03.567Z,20.50
2023-08-21T02:37:27.220Z,20.50
2023-08-21T02:39:52.699Z,20.50
2023-08-21T02:42:16.448Z,20.60
2023-08-21T02:44:40.075Z,20.60
2023-08-21T02:47:03.810Z,20.60
2023-08-21T02:49:29.203Z,20.60
2023-08-21T02:51:52.888Z,20.70
2023-08-21T02:54:16.539Z,20.70
2023-08-21T02:56:40.195Z,20.70
2023-08-21T02:59:03.810Z,20.70
2023-08-21T03:01:27.488Z,20.70
2023-08-21T03:03:51.104Z,20.70
2023-08-21T03:06:17.653Z,20.80
2023-08-21T03:08:41.403Z,20.80
2023-08-21T03:11:05.607Z,20.80
2023-08-21T03:13:30.846Z,20.90
2023-08-21T03:15:54.600Z,20.90
2023-08-21T03:18:18.336Z,20.80
2023-08-21T03:20:47.272Z,20.80
2023-08-21T03:23:12.431Z,20.80
2023-08-21T03:25:36.113Z,20.80
2023-08-21T03:27:59.705Z,20.80
2023-08-21T03:30:23.620Z,20.80
2023-08-21T03:32:48.086Z,20.80
2023-08-21T03:35:11.754Z,20.80
2023-08-21T03:37:35.661Z,20.80
2023-08-21T03:40:01.452Z,20.80
2023-08-21T03:42:25.820Z,20.80
2023-08-21T03:44:51.548Z,20.80
2023-08-21T03:47:15.259Z,20.70
2023-08-21T03:49:49.949Z,20.70
2023-08-21T03:52:14.826Z,20.70
2023-08-21T03:54:39.285Z,20.70
2023-08-21T03:57:04.586Z,20.70
2023-08-21T03:59:29.427Z,20.70
2023-08-21T04:01:53.097Z,20.60
2023-08-21T04:04:16.843Z,20.60
2023-08-21T04:06:40.841Z,20.60
2023-08-21T04:09:07.089Z,20.60
2023-08-21T04:11:30.830Z,20.50
2023-08-21T04:13:55.956Z,20.50
2023-08-21T04:16:19.924Z,20.50
2023-08-21T04:18:43.628Z,20.50
2023-08-21T04:21:07.548Z,20.40
2023-08-21T04:23:31.187Z,20.50
2023-08-21T04:25:54.817Z,20.40
2023-08-21T04:28:18.495Z,20.50
2023-08-21T04:30:44.239Z,20.40
2023-08-21T04:33:07.884Z,20.40
2023-08-21T04:35:31.687Z,20.40
2023-08-21T04:37:55.315Z,20.40
2023-08-21T04:40:22.001Z,20.40
2023-08-21T04:42:46.128Z,20.40
2023-08-21T04:45:11.274Z,20.40
2023-08-21T04:47:37.306Z,20.40
2023-08-21T04:50:01.179Z,20.50
2023-08-21T04:52:27.422Z,20.50
2023-08-21T04:54:52.300Z,20.50
2023-08-21T04:57:16.020Z,20.60
2023-08-21T04:59:41.365Z,20.60
2023-08-21T05:02:05.394Z,20.70
2023-08-21T05:04:30.570Z,20.70
2023-08-21T05:06:54.181Z,20.70
2023-08-21T05:09:17.966Z,20.80
2023-08-21T05:11:41.664Z,20.80
2023-08-21T05:14:05.680Z,20.90
2023-08-21T05:16:29.348Z,21.00
2023-08-21T05:18:53.023Z,21.10
2023-08-21T05:21:18.006Z,21.10
2023-08-21T05:23:41.613Z,21.20
2023-08-21T05:26:06.762Z,21.30
2023-08-21T05:28:30.435Z,21.30
2023-08-21T05:30:54.072Z,21.40
2023-08-21T05:33:18.305Z,21.40
2023-08-21T05:35:43.646Z,21.50
2023-08-21T05:38:09.043Z,21.50
2023-08-21T05:40:32.996Z,21.60
2023-08-21T05:42:56.769Z,21.70
2023-08-21T05:45:20.551Z,21.70
2023-08-21T05:47:44.322Z,21.80
2023-08-21T05:50:09.093Z,21.80
2023-08-21T05:52:32.831Z,21.80
2023-08-21T05:54:57.969Z,21.90
2023-08-21T05:57:21.836Z,21.80
2023-08-21T05:59:47.249Z,21.80
2023-08-21T06:02:11.169Z,21.90
2023-08-21T06:04:34.812Z,22.00
2023-08-21T06:06:59.728Z,22.10
2023-08-21T06:09:23.653Z,22.40
2023-08-21T06:11:48.709Z,22.50
2023-08-21T06:14:12.534Z,22.70
2023-08-21T06:16:36.325Z,22.80
2023-08-21T06:19:00.157Z,22.90
2023-08-21T06:21:23.891Z,23.00
2023-08-21T06:23:47.535Z,23.50
2023-08-21T06:26:11.175Z,23.60
2023-08-21T06:28:36.276Z,23.80
2023-08-21T06:31:00.289Z,24.30
2023-08-21T06:33:24.120Z,24.60
2023-08-21T06:35:47.753Z,25.00
2023-08-21T06:38:11.392Z,25.10
2023-08-21T06:40:36.011Z,25.20
2023-08-21T06:43:00.069Z,25.50
2023-08-21T06:45:31.736Z,25.60
2023-08-21T06:47:56.302Z,26.20
2023-08-21T06:50:19.940Z,26.40
2023-08-21T06:52:44.795Z,26.60
2023-08-21T06:55:09.630Z,26.80
2023-08-21T06:57:33.661Z,27.20
2023-08-21T06:59:57.282Z,27.20
2023-08-21T07:02:22.386Z,27.20
2023-08-21T07:04:46.184Z,27.10
2023-08-21T07:07:11.074Z,27.30
2023-08-21T07:09:34.702Z,27.10
2023-08-21T07:11:58.375Z,26.90
2023-08-21T07:14:22.256Z,26.90
2023-08-21T07:16:46.013Z,26.90
2023-08-21T07:19:11.185Z,26.90
2023-08-21T07:21:36.365Z,26.90
2023-08-21T07:24:00.357Z,26.90
2023-08-21T07:26:24.064Z,26.80
2023-08-21T07:28:47.692Z,26.90
2023-08-21T07:31:11.494Z,26.80
2023-08-21T07:33:35.124Z,26.70
2023-08-21T07:36:05.085Z,26.50
2023-08-21T07:38:28.736Z,26.50
2023-08-21T07:40:52.342Z,26.40
2023-08-21T07:43:16.038Z,26.30
2023-08-21T07:45:40.316Z,26.20
2023-08-21T07:48:14.331Z,26.00
2023-08-21T07:50:38.583Z,25.90
2023-08-21T07:53:03.684Z,25.70
2023-08-21T07:55:27.587Z,25.70
2023-08-21T07:57:51.295Z,25.80
2023-08-21T08:00:16.591Z,25.70
2023-08-21T08:02:40.828Z,25.60
2023-08-21T08:05:05.144Z,25.60
2023-08-21T08:07:28.736Z,25.60
2023-08-21T08:09:54.245Z,25.60
2023-08-21T08:12:17.861Z,25.50
2023-08-21T08:14:41.481Z,25.50
2023-08-21T08:17:05.197Z,25.60
2023-08-21T08:19:30.398Z,25.60
2023-08-21T08:21:53.969Z,25.60
2023-08-21T08:24:17.651Z,25.70
2023-08-21T08:26:44.149Z,25.60
2023-08-21T08:29:07.804Z,25.60
2023-08-21T08:31:31.425Z,25.70
2023-08-21T08:33:55.456Z,25.80
2023-08-21T08:36:19.359Z,25.70
2023-08-21T08:38:44.262Z,25.60
2023-08-21T08:41:14.799Z,25.60
2023-08-21T08:43:43.089Z,25.60
2023-08-21T08:46:07.743Z,25.80
2023-08-21T08:48:31.524Z,25.80
2023-08-21T08:50:58.676Z,25.90
2023-08-21T08:53:23.182Z,26.00
2023-08-21T08:55:47.372Z,26.10
2023-08-21T08:58:11.016Z,26.20
2023-08-21T09:00:36.081Z,26.30
2023-08-21T09:03:00.266Z,26.50
2023-08-21T09:05:25.051Z,26.60
2023-08-21T09:07:49.142Z,26.60
2023-08-21T09:10:16.538Z,26.70
2023-08-21T09:12:43.765Z,26.70
2023-08-21T09:15:10.369Z,26.80
2023-08-21T09:17:36.340Z,26.90
2023-08-21T09:20:06.767Z,27.00
2023-08-21T09:22:30.601Z,27.10
2023-08-21T09:25:08.044Z,27.10
2023-08-21T09:27:32.000Z,27.10
2023-08-21T09:29:56.088Z,27.10
2023-08-21T09:32:19.823Z,27.20
2023-08-21T09:34:44.810Z,27.40
2023-08-21T09:37:09.599Z,27.50
2023-08-21T09:39:36.437Z,27.40
2023-08-21T09:42:00.271Z,27.40
2023-08-21T09:44:23.933Z,27.40
2023-08-21T09:46:51.876Z,27.50
2023-08-21T09:49:15.754Z,27.40
2023-08-21T09:51:40.912Z,27.40
2023-08-21T09:54:06.350Z,27.70
2023-08-21T09:56:30.200Z,27.60
2023-08-21T09:58:54.276Z,27.80
2023-08-21T10:01:19.349Z,28.00
2023-08-21T10:03:46.028Z,28.00
2023-08-21T10:06:11.929Z,28.30
2023-08-21T10:08:41.851Z,28.50
2023-08-21T10:11:07.564Z,28.60
2023-08-21T10:13:31.266Z,28.70
2023-08-21T10:15:54.990Z,29.00
2023-08-21T10:18:22.876Z,29.00
2023-08-21T10:20:46.737Z,29.10
2023-08-21T10:23:10.362Z,28.90
2023-08-21T10:25:44.460Z,28.90
2023-08-21T10:28:08.644Z,29.00
2023-08-21T10:30:32.374Z,29.00
2023-08-21T10:32:58.439Z,29.00
2023-08-21T10:35:24.719Z,29.10
2023-08-21T10:38:12.535Z,29.30
2023-08-21T10:40:38.164Z,29.20
2023-08-21T10:43:02.368Z,29.40
2023-08-21T10:45:26.076Z,29.40
2023-08-21T10:47:51.706Z,29.70
2023-08-21T10:50:15.487Z,29.60
2023-08-21T10:52:42.948Z,29.40
2023-08-21T10:55:07.841Z,29.40
2023-08-21T10:57:34.813Z,29.40
2023-08-21T11:00:00.547Z,29.60
2023-08-21T11:02:24.981Z,29.50
2023-08-21T11:04:48.645Z,29.60
2023-08-21T11:07:12.686Z,29.60
2023-08-21T11:09:38.484Z,29.80
2023-08-21T11:12:08.186Z,30.00
2023-08-21T11:14:33.214Z,30.10
2023-08-21T11:16:56.845Z,30.00
2023-08-21T11:19:20.462Z,29.90
2023-08-21T11:21:44.587Z,30.20
2023-08-21T11:24:08.286Z,30.20
2023-08-21T11:26:31.936Z,30.10
2023-08-21T11:28:57.629Z,30.20
2023-08-21T11:31:23.826Z,30.10
2023-08-21T11:33:52.800Z,30.20
2023-08-21T11:36:16.539Z,30.30
2023-08-21T11:38:40.173Z,30.30
2023-08-21T11:41:07.678Z,30.30
2023-08-21T11:43:38.794Z,30.20
2023-08-21T11:46:04.309Z,30.30
2023-08-21T11:48:29.390Z,30.20
2023-08-21T11:50:53.081Z,30.20
2023-08-21T11:53:16.663Z,30.20
2023-08-21T11:55:41.152Z,29.80
2023-08-21T11:58:05.849Z,29.70
2023-08-21T12:00:31.508Z,29.60
2023-08-21T12:02:59.868Z,29.80
2023-08-21T12:05:25.208Z,29.80
2023-08-21T12:07:48.856Z,29.60
2023-08-21T12:10:12.867Z,29.60
2023-08-21T12:12:36.440Z,29.70
2023-08-21T12:15:00.172Z,29.90
2023-08-21T12:17:23.771Z,30.00
2023-08-21T12:19:47.468Z,30.00
2023-08-21T12:22:13.414Z,29.90
2023-08-21T12:24:38.086Z,30.00
2023-08-21T12:27:01.725Z,30.10
2023-08-21T12:29:25.526Z,30.20
2023-08-21T12:31:49.223Z,30.10
2023-08-21T12:34:12.945Z,30.20
2023-08-21T12:36:38.892Z,30.10
2023-08-21T12:39:04.779Z,30.00
2023-08-21T12:41:28.506Z,29.80
2023-08-21T12:43:52.156Z,29.50
2023-08-21T12:46:15.940Z,29.30
2023-08-21T12:48:39.716Z,29.30
2023-08-21T12:51:03.739Z,29.30
2023-08-21T12:53:27.408Z,29.10
2023-08-21T12:55:52.590Z,28.90
2023-08-21T12:58:16.274Z,29.10
2023-08-21T13:00:39.859Z,29.40
2023-08-21T13:03:04.610Z,29.70
2023-08-21T13:05:28.360Z,29.80
2023-08-21T13:07:52.006Z,29.30
2023-08-21T13:10:15.984Z,29.20
2023-08-21T13:12:41.180Z,29.00
2023-08-21T13:15:08.415Z,29.40
2023-08-21T13:17:32.182Z,29.60
2023-08-21T13:19:55.781Z,29.60
2023-08-21T13:22:19.832Z,29.50
2023-08-21T13:24:43.420Z,29.70
2023-08-21T13:27:07.404Z,29.90
2023-08-21T13:29:32.412Z,30.00
2023-08-21T13:31:56.054Z,30.30
2023-08-21T13:34:19.703Z,30.20
2023-08-21T13:36:43.346Z,30.20
2023-08-21T13:39:07.675Z,30.10
2023-08-21T13:41:31.445Z,29.90
2023-08-21T13:43:55.754Z,30.00
2023-08-21T13:46:22.517Z,30.00
2023-08-21T13:48:46.084Z,30.00
2023-08-21T13:51:09.766Z,30.10
2023-08-21T13:53:33.408Z,29.80
2023-08-21T13:55:57.095Z,29.70
2023-08-21T13:58:20.762Z,29.80
2023-08-21T14:00:45.586Z,29.80
2023-08-21T14:03:10.617Z,30.00
2023-08-21T14:05:34.731Z,29.90
2023-08-21T14:07:58.343Z,29.90
2023-08-21T14:10:22.299Z,29.90
2023-08-21T14:12:46.015Z,29.90
2023-08-21T14:15:10.389Z,29.80
2023-08-21T14:17:34.128Z,29.90
2023-08-21T14:19:59.341Z,29.90
2023-08-21T14:22:23.156Z,29.90
2023-08-21T14:24:46.910Z,29.90
2023-08-21T14:27:10.514Z,30.10
2023-08-21T14:29:34.239Z,30.10
2023-08-21T14:31:58.726Z,30.20
2023-08-21T14:34:23.005Z,30.20
2023-08-21T14:36:48.772Z,30.20
2023-08-21T14:39:12.989Z,30.10
2023-08-21T14:41:36.629Z,30.00
2023-08-21T14:44:00.327Z,29.70
2023-08-21T14:46:40.215Z,29.80
2023-08-21T14:49:06.574Z,29.60
2023-08-21T14:51:30.577Z,29.70
2023-08-21T14:53:55.605Z,29.70
2023-08-21T14:56:19.221Z,29.70
2023-08-21T14:58:44.649Z,29.70
2023-08-21T15:01:08.332Z,29.60
2023-08-21T15:03:33.944Z,29.50
2023-08-21T15:05:57.608Z,29.50
2023-08-21T15:08:21.284Z,29.10
2023-08-21T15:10:46.256Z,29.10
2023-08-21T15:13:09.903Z,29.10
2023-08-21T15:15:33.540Z,29.00
2023-08-21T15:17:57.202Z,28.80
2023-08-21T15:20:22.270Z,28.70
2023-08-21T15:22:46.051Z,28.60
2023-08-21T15:25:10.809Z,28.60
2023-08-21T15:27:35.819Z,28.60
2023-08-21T15:29:59.426Z,28.40
2023-08-21T15:32:23.116Z,28.40
2023-08-21T15:34:46.697Z,28.30
2023-08-21T15:37:10.571Z,28.10
2023-08-21T15:39:34.302Z,28.10
2023-08-21T15:41:58.008Z,28.10
2023-08-21T15:44:23.272Z,28.10
2023-08-21T15:46:46.946Z,28.10
2023-08-21T15:49:13.138Z,28.10
2023-08-21T15:51:36.854Z,28.10
2023-08-21T15:54:00.486Z,28.00
2023-08-21T15:56:24.212Z,27.80
2023-08-21T15:58:47.790Z,27.70
2023-08-21T16:01:13.407Z,27.60
2023-08-21T16:03:37.409Z,27.50
2023-08-21T16:06:01.096Z,27.40
2023-08-21T16:08:24.831Z,27.40
2023-08-21T16:10:48.564Z,27.30
2023-08-21T16:13:12.985Z,27.30
2023-08-21T16:15:36.695Z,27.20
2023-08-21T16:18:01.751Z,27.10
2023-08-21T16:20:26.822Z,27.00
2023-08-21T16:22:51.792Z,26.90
2023-08-21T16:25:15.594Z,26.80
2023-08-21T16:27:39.255Z,26.70
2023-08-21T16:30:02.958Z,26.60
2023-08-21T16:32:26.521Z,26.60
2023-08-21T16:34:51.657Z,26.50
2023-08-21T16:37:15.611Z,26.50
2023-08-21T16:39:39.393Z,26.50
2023-08-21T16:42:02.988Z,26.40
2023-08-21T16:44:27.269Z,26.40
2023-08-21T16:46:50.885Z,26.40
2023-08-21T16:49:14.612Z,26.20
2023-08-21T16:51:39.784Z,26.20
2023-08-21T16:54:03.766Z,26.10
2023-08-21T16:56:27.928Z,26.10
2023-08-21T16:58:51.600Z,26.10
2023-08-21T17:01:15.257Z,26.10
2023-08-21T17:03:39.064Z,26.10
2023-08-21T17:06:02.792Z,26.00
2023-08-21T17:08:27.858Z,26.00
2023-08-21T17:10:53.379Z,25.90
2023-08-21T17:13:17.241Z,25.80
2023-08-21T17:15:40.999Z,25.70
2023-08-21T17:18:05.223Z,25.70
2023-08-21T17:20:28.935Z,25.70
2023-08-21T17:22:52.611Z,25.70
2023-08-21T17:25:18.286Z,25.60
2023-08-21T17:27:42.391Z,25.60
2023-08-21T17:30:07.845Z,25.50
2023-08-21T17:32:33.349Z,25.40
2023-08-21T17:34:57.002Z,25.40
2023-08-21T17:37:20.653Z,25.40
2023-08-21T17:39:47.188Z,25.30
2023-08-21T17:42:12.465Z,25.20
2023-08-21T17:44:36.192Z,25.20
2023-08-21T17:46:59.871Z,25.10
2023-08-21T17:49:31.020Z,25.00
2023-08-21T17:51:55.183Z,24.90
2023-08-21T17:54:19.752Z,24.80
2023-08-21T17:56:43.420Z,24.80
2023-08-21T17:59:08.452Z,24.60
2023-08-21T18:01:32.213Z,24.60
2023-08-21T18:03:55.787Z,24.50
2023-08-21T18:06:22.764Z,24.40
2023-08-21T18:08:46.451Z,24.30
2023-08-21T18:11:10.096Z,24.20
2023-08-21T18:13:33.682Z,24.10
2023-08-21T18:15:59.037Z,24.00
2023-08-21T18:18:22.659Z,24.00
2023-08-21T18:20:54.725Z,23.80
2023-08-21T18:23:22.817Z,23.80
2023-08-21T18:25:48.637Z,23.70
2023-08-21T18:28:13.162Z,23.60
2023-08-21T18:30:37.739Z,23.50
2023-08-21T18:33:02.845Z,23.40
2023-08-21T18:35:26.671Z,23.30
2023-08-21T18:37:50.314Z,23.20
2023-08-21T18:40:14.545Z,23.20
2023-08-21T18:42:38.932Z,23.00
2023-08-21T18:45:02.656Z,23.00
2023-08-21T18:47:30.628Z,22.90
2023-08-21T18:49:55.848Z,22.80
2023-08-21T18:52:19.503Z,22.70
2023-08-21T18:54:43.089Z,22.60
2023-08-21T18:57:06.959Z,22.50
2023-08-21T18:59:30.583Z,22.40
2023-08-21T19:01:54.286Z,22.30
2023-08-21T19:04:17.983Z,22.20
2023-08-21T19:06:51.830Z,22.20
2023-08-21T19:09:20.368Z,22.10
2023-08-21T19:11:43.986Z,22.00
2023-08-21T19:14:07.640Z,22.00
2023-08-21T19:16:31.314Z,21.90
2023-08-21T19:18:55.060Z,21.90
2023-08-21T19:21:18.647Z,21.80
2023-08-21T19:23:43.761Z,21.80
2023-08-21T19:26:07.864Z,21.70
2023-08-21T19:28:31.670Z,21.70
2023-08-21T19:30:55.276Z,21.60
2023-08-21T19:33:21.720Z,21.60
2023-08-21T19:35:45.606Z,21.50
2023-08-21T19:38:10.428Z,21.50
2023-08-21T19:40:39.054Z,21.40
2023-08-21T19:43:02.759Z,21.40
2023-08-21T19:45:26.380Z,21.40
2023-08-21T19:47:50.219Z,21.30
2023-08-21T19:50:13.879Z,21.20
2023-08-21T19:52:37.522Z,21.10
2023-08-21T19:55:01.144Z,21.10
2023-08-21T19:57:26.162Z,21.00
2023-08-21T19:59:49.801Z,20.90
2023-08-21T20:02:13.547Z,20.90
2023-08-21T20:04:37.175Z,20.80
2023-08-21T20:07:00.936Z,20.80
2023-08-21T20:09:24.620Z,20.80
2023-08-21T20:11:48.277Z,20.80
2023-08-21T20:14:13.345Z,20.70
2023-08-21T20:16:37.013Z,20.70
2023-08-21T20:19:00.628Z,20.60
2023-08-21T20:21:24.527Z,20.60
2023-08-21T20:23:48.330Z,20.50
2023-08-21T20:26:12.040Z,20.50
2023-08-21T20:28:35.825Z,20.50
2023-08-21T20:31:04.338Z,20.40
2023-08-21T20:33:27.976Z,20.40
2023-08-21T20:35:51.784Z,20.40
2023-08-21T20:38:15.430Z,20.30
2023-08-21T20:40:39.137Z,20.20
2023-08-21T20:43:03.999Z,20.10
2023-08-21T20:45:28.287Z,20.10
2023-08-21T20:47:53.318Z,20.10
2023-08-21T20:50:17.145Z,20.00
2023-08-21T20:52:44.883Z,20.00
2023-08-21T20:55:09.549Z,20.00
2023-08-21T20:57:33.175Z,19.90
2023-08-21T20:59:56.793Z,19.80
2023-08-21T21:02:20.773Z,19.80
2023-08-21T21:04:46.169Z,19.80
2023-08-21T21:07:10.118Z,19.70
2023-08-21T21:09:33.917Z,19.70
2023-08-21T21:11:57.505Z,19.60
2023-08-21T21:14:21.280Z,19.60
2023-08-21T21:16:45.443Z,19.60
2023-08-21T21:19:09.302Z,19.60
2023-08-21T21:21:34.405Z,19.50
2023-08-21T21:23:58.256Z,19.50
2023-08-21T21:26:22.074Z,19.50
2023-08-21T21:28:45.845Z,19.40
2023-08-21T21:31:09.671Z,19.40
2023-08-21T21:33:33.449Z,19.40
2023-08-21T21:35:58.946Z,19.40
2023-08-21T21:38:26.808Z,19.30
2023-08-21T21:40:50.357Z,19.20
2023-08-21T21:43:13.987Z,19.10
2023-08-21T21:45:37.690Z,19.20
2023-08-21T21:48:01.362Z,19.20
2023-08-21T21:50:25.078Z,19.10
2023-08-21T21:52:48.750Z,19.10
2023-08-21T21:55:13.720Z,19.00
2023-08-21T21:57:37.412Z,19.00
2023-08-21T22:00:01.053Z,19.00
2023-08-21T22:02:24.803Z,19.00
2023-08-21T22:04:48.475Z,19.00
2023-08-21T22:07:12.088Z,19.00
2023-08-21T22:09:35.696Z,19.00
2023-08-21T22:12:00.825Z,19.00
2023-08-21T22:14:24.406Z,19.00
2023-08-21T22:16:48.935Z,18.90
2023-08-21T22:19:12.774Z,19.00
2023-08-21T22:21:36.669Z,19.00
2023-08-21T22:24:00.349Z,19.00
2023-08-21T22:26:23.994Z,19.00
2023-08-21T22:28:49.039Z,19.00
2023-08-21T22:31:12.798Z,19.00
2023-08-21T22:33:36.462Z,19.10
2023-08-21T22:36:00.146Z,19.10
2023-08-21T22:38:23.784Z,19.10
2023-08-21T22:40:47.530Z,19.10
2023-08-21T22:43:11.091Z,19.10
2023-08-21T22:45:40.390Z,19.10
2023-08-21T22:48:04.175Z,19.20
2023-08-21T22:50:27.841Z,19.20
2023-08-21T22:52:51.459Z,19.20
2023-08-21T22:55:15.125Z,19.20
2023-08-21T22:57:41.132Z,19.30
2023-08-21T23:00:09.391Z,19.20
2023-08-21T23:02:34.797Z,19.30
2023-08-21T23:04:58.643Z,19.30
2023-08-21T23:07:22.342Z,19.30
2023-08-21T23:09:46.010Z,19.30
2023-08-21T23:12:12.763Z,19.40
2023-08-21T23:14:36.449Z,19.40
2023-08-21T23:17:00.143Z,19.40
2023-08-21T23:19:25.250Z,19.50
2023-08-21T23:21:48.856Z,19.50
2023-08-21T23:24:12.907Z,19.50
2023-08-21T23:26:36.502Z,19.50
2023-08-21T23:29:04.380Z,19.50
2023-08-21T23:31:28.048Z,19.50
2023-08-21T23:33:51.694Z,19.50
2023-08-21T23:36:16.669Z,19.60
2023-08-21T23:38:40.312Z,19.50
2023-08-21T23:41:04.387Z,19.50
2023-08-21T23:43:28.019Z,19.50
2023-08-21T23:45:51.771Z,19.50
2023-08-21T23:48:15.469Z,19.50
2023-08-21T23:50:39.208Z,19.50
2023-08-21T23:53:07.746Z,19.50
2023-08-21T23:55:31.706Z,19.50
2023-08-21T23:57:55.325Z,19.50
